LEMO

Details ICAO LEMO (OZP)
Name MORON AB
Region Spain
Timezone Europe/Madrid (UTC+1.0)
Plans Departing 19
Arriving 19
Stats Elevation 285 ft / 87 m (AMSL)
Location 37.174890° -5.616018°
Runways 1
Magnetic Variation 1.210° W
Sunrise 2017-12-12 07:28:18 UTC / 2017-12-12 08:28:18 Local
Sunset 2017-12-12 17:06:58 UTC / 2017-12-12 18:06:58 Local
Advertisement - Login to hide

Runways

ID Width Length Bearing (true) Bearing (mag) Surface Threshold Offset Overrun Length
02 200 ft / 61 m 11,820 ft / 3,603 m 19.75° 20.96° Asphalt 0 ft / 0 m 1,000 ft / 305 m
20 200 ft / 61 m 11,820 ft / 3,603 m 199.76° 200.97° Asphalt 0 ft / 0 m 1,000 ft / 305 m

Approach Navaids

Runway Type Ident Frequency Range Bearing (true) Bearing (mag) Slope Elevation
20 Localiser IMRF 109.70 MHz 18 nm / 33 km 199.71° 200.92° - 295 ft / 90 m (AMSL)
20 Glidescope IMRF 109.70 MHz 10 nm / 19 km 199.76° 200.97° 3.00° 346 ft / 105 m (AMSL)

Map

Weather


0- 5 10 15 20 25 30 35+ Temperature / ° C

Clouds and Precipitation
Forecast for 2017-12-13 00:00 UTC. Updated 36 minutes ago

Ground ~20,000 ft ~40,000 ft Winds

METAR

LEMO 122100Z 05003KT CAVOK 06/03 Q1023 NOSIG

TAF

Not found

Frequencies

Tower 122.10 MHz TWR
Approach 120.80 MHz SEVILLA APP
Approach 120.00 MHz SEVILLA APP
Approach 128.50 MHz SEVILLA APP
Warning: Do not use this data for real-world aviation or navigation. No guarantee of current accuracy is given.